Time;durP1;ratioP1;P1;durP2;ratioP2;P2;SDS_P1;SDS_P2;PMS_P1;PMS_P2;Temp;Humidity;BMP_temperature;BMP_pressure;BME280_temperature;BME280_humidity;BME280_pressure;Samples;Min_cycle;Max_cycle;Signal;HPM_P1;HPM_P2
2022/03/03 00:00:42;;;;;;;67.97;26.73;;;;;;;-2.02;100.00;98253.81;5035576;28;20481;-77
2022/03/03 00:03:09;;;;;;;63.42;26.40;;;;;;;-1.95;100.00;98235.19;5036165;28;20072;-80
2022/03/03 00:05:36;;;;;;;66.38;29.13;;;;;;;-1.99;100.00;98242.75;5034399;28;20060;-77
2022/03/03 00:08:03;;;;;;;71.25;27.80;;;;;;;-1.96;100.00;98244.16;5034907;28;20117;-78
2022/03/03 00:10:30;;;;;;;66.00;27.23;;;;;;;-1.85;100.00;98242.63;5039539;28;20049;-79
2022/03/03 00:12:57;;;;;;;70.65;26.63;;;;;;;-2.10;100.00;98240.03;5037765;28;20408;-78
2022/03/03 00:15:23;;;;;;;62.15;26.90;;;;;;;-2.08;100.00;98244.09;5040272;28;20065;-80
2022/03/03 00:17:50;;;;;;;70.13;28.42;;;;;;;-2.09;100.00;98239.00;5041431;28;20088;-80
2022/03/03 00:20:17;;;;;;;69.80;28.60;;;;;;;-2.16;100.00;98217.03;5040040;28;20055;-82
2022/03/03 00:22:44;;;;;;;66.82;27.63;;;;;;;-2.10;100.00;98240.03;5039256;28;20045;-76
2022/03/03 00:25:11;;;;;;;69.05;28.00;;;;;;;-2.32;100.00;98252.09;5040476;28;20052;-78
2022/03/03 00:27:38;;;;;;;62.58;26.23;;;;;;;-2.29;100.00;98260.38;5040124;28;20489;-79
2022/03/03 00:30:05;;;;;;;65.13;26.95;;;;;;;-2.28;100.00;98259.38;5040135;28;20065;-78
2022/03/03 00:32:40;;;;;;;64.80;27.10;;;;;;;-2.37;100.00;98257.19;5040690;28;20072;-79
2022/03/03 00:35:09;;;;;;;71.07;28.58;;;;;;;-2.40;100.00;98257.66;5039662;28;20455;-77
2022/03/03 00:37:35;;;;;;;67.47;26.63;;;;;;;-2.31;100.00;98235.94;5038184;28;20050;-78
2022/03/03 00:40:04;;;;;;;63.22;26.95;;;;;;;-2.12;100.00;98260.66;5041531;28;20072;-81
2022/03/03 00:42:31;;;;;;;65.95;27.23;;;;;;;-2.11;100.00;98263.09;5041303;28;20057;-79
2022/03/03 00:44:58;;;;;;;70.72;28.23;;;;;;;-2.10;100.00;98258.59;5038125;28;20272;-79
2022/03/03 00:47:25;;;;;;;64.13;26.23;;;;;;;-2.08;100.00;98253.88;5037600;28;20453;-79
2022/03/03 00:49:52;;;;;;;66.63;27.30;;;;;;;-2.02;100.00;98260.97;5037609;28;20075;-81
2022/03/03 00:52:18;;;;;;;70.07;26.60;;;;;;;-2.00;100.00;98249.09;5035962;28;20151;-80
2022/03/03 00:54:45;;;;;;;60.85;25.52;;;;;;;-2.15;100.00;98242.53;5038901;28;20065;-81
2022/03/03 00:57:11;;;;;;;63.08;26.02;;;;;;;-2.20;100.00;98247.69;5040557;28;20087;-79
2022/03/03 00:59:38;;;;;;;60.00;26.58;;;;;;;-2.18;100.00;98235.00;5041871;28;20091;-80
2022/03/03 01:02:05;;;;;;;61.85;26.73;;;;;;;-2.18;100.00;98222.56;5058843;28;20060;-79
2022/03/03 01:04:32;;;;;;;64.45;27.15;;;;;;;-2.31;100.00;98222.69;5061894;28;20060;-78
2022/03/03 01:06:58;;;;;;;67.25;27.02;;;;;;;-2.29;100.00;98207.38;5060947;28;20114;-79
2022/03/03 01:09:25;;;;;;;59.85;25.27;;;;;;;-2.23;100.00;98206.50;5058841;28;20057;-79
2022/03/03 01:11:51;;;;;;;60.70;25.42;;;;;;;-2.27;100.00;98213.25;5057552;28;20074;-79
2022/03/03 01:14:23;;;;;;;62.35;25.42;;;;;;;-2.50;100.00;98157.41;5057578;28;20048;-77
2022/03/03 01:16:50;;;;;;;58.38;24.63;;;;;;;-2.20;100.00;98200.75;5056568;28;20099;-78
2022/03/03 01:19:18;;;;;;;56.75;25.42;;;;;;;-2.29;100.00;98198.59;5040048;28;20053;-78
2022/03/03 01:21:44;;;;;;;59.53;25.50;;;;;;;-2.30;100.00;98195.16;5039866;28;20053;-77
2022/03/03 01:24:11;;;;;;;58.15;24.95;;;;;;;-2.22;100.00;98204.66;5039278;28;20064;-78
2022/03/03 01:26:37;;;;;;;57.80;24.00;;;;;;;-2.25;100.00;98190.00;5040433;28;20050;-79
2022/03/03 01:29:04;;;;;;;65.68;25.90;;;;;;;-2.27;100.00;98188.59;5042494;28;20053;-78
2022/03/03 01:31:31;;;;;;;62.13;25.05;;;;;;;-2.21;100.00;98185.88;5043179;28;20060;-79
2022/03/03 01:33:57;;;;;;;57.42;23.98;;;;;;;-2.30;100.00;98183.75;5052707;28;20156;-83
2022/03/03 01:36:24;;;;;;;54.58;23.65;;;;;;;-2.36;100.00;98185.41;5057182;28;20114;-81
2022/03/03 01:38:51;;;;;;;52.65;22.67;;;;;;;-2.27;100.00;98162.88;5054194;28;20049;-79
2022/03/03 01:41:17;;;;;;;50.85;22.73;;;;;;;-2.33;100.00;98158.47;5045471;28;20053;-79
2022/03/03 01:43:44;;;;;;;49.33;22.88;;;;;;;-2.40;100.00;98160.38;5043473;28;20068;-80
2022/03/03 01:46:10;;;;;;;55.20;22.60;;;;;;;-2.47;100.00;98154.31;5041456;28;20120;-79
2022/03/03 01:48:37;;;;;;;54.05;24.17;;;;;;;-2.48;100.00;98159.84;5041066;28;20079;-79
2022/03/03 01:51:04;;;;;;;54.08;23.15;;;;;;;-2.47;100.00;98148.22;5037920;28;20050;-79
2022/03/03 01:53:30;;;;;;;56.88;23.67;;;;;;;-2.56;100.00;98145.06;5039473;28;20053;-79
2022/03/03 01:55:57;;;;;;;51.92;22.02;;;;;;;-2.66;100.00;98126.97;5040767;28;20134;-80
2022/03/03 01:58:24;;;;;;;53.10;23.25;;;;;;;-2.63;100.00;98131.84;5039242;28;20140;-79
2022/03/03 02:00:54;;;;;;;53.40;23.55;;;;;;;-2.64;100.00;98135.53;5039449;28;20053;-78
2022/03/03 02:03:20;;;;;;;51.63;23.30;;;;;;;-2.74;100.00;98131.78;5038741;28;20620;-79
2022/03/03 02:05:47;;;;;;;63.03;24.58;;;;;;;-2.80;100.00;98149.34;5038336;28;20119;-78
2022/03/03 02:08:14;;;;;;;60.70;24.63;;;;;;;-2.89;100.00;98139.25;5037851;28;20046;-77
2022/03/03 02:10:41;;;;;;;58.50;24.30;;;;;;;-2.93;100.00;98125.63;5040256;28;20037;-79
2022/03/03 02:13:08;;;;;;;53.08;23.33;;;;;;;-2.66;100.00;98136.78;5041195;28;20478;-79
2022/03/03 02:15:34;;;;;;;53.45;23.23;;;;;;;-2.67;100.00;98135.16;5040126;28;20053;-78
2022/03/03 02:18:01;;;;;;;55.08;24.67;;;;;;;-2.94;100.00;98147.03;5041296;28;20136;-79
2022/03/03 02:20:30;;;;;;;59.53;25.30;;;;;;;-2.64;100.00;98134.72;5040609;28;20056;-80
2022/03/03 02:22:58;;;;;;;63.60;25.67;;;;;;;-2.57;100.00;98135.47;5043397;28;20053;-79
2022/03/03 02:25:26;;;;;;;53.17;23.40;;;;;;;-2.46;100.00;98132.09;5041943;28;20660;-80
2022/03/03 02:27:52;;;;;;;55.47;24.20;;;;;;;-2.53;100.00;98132.16;5041651;28;20111;-79
2022/03/03 02:30:19;;;;;;;59.10;24.08;;;;;;;-2.57;100.00;98127.50;5039421;28;20109;-78
2022/03/03 02:32:47;;;;;;;52.83;23.10;;;;;;;-2.42;100.00;98121.84;5039063;28;20045;-78
2022/03/03 02:35:14;;;;;;;55.17;23.00;;;;;;;-2.31;100.00;98126.44;5037749;28;20489;-79
2022/03/03 02:37:43;;;;;;;56.38;24.08;;;;;;;-2.42;100.00;98119.19;5038047;28;20528;-80
2022/03/03 02:40:19;;;;;;;57.03;23.00;;;;;;;-2.40;100.00;98119.81;5039397;28;20072;-79
2022/03/03 02:42:51;;;;;;;51.55;22.08;;;;;;;-2.40;100.00;98115.28;5044125;28;20057;-79
2022/03/03 02:45:19;;;;;;;53.60;22.77;;;;;;;-2.42;100.00;98116.53;5042179;28;20107;-77
2022/03/03 02:47:47;;;;;;;49.78;22.33;;;;;;;-2.21;100.00;98126.72;5043015;28;20084;-78
2022/03/03 02:50:19;;;;;;;55.83;23.20;;;;;;;-2.29;100.00;98116.41;5038549;28;20080;-78
2022/03/03 02:52:45;;;;;;;50.83;21.75;;;;;;;-2.23;100.00;98123.50;5033742;28;20053;-79
2022/03/03 02:55:12;;;;;;;52.47;21.98;;;;;;;-2.23;100.00;98113.69;5033175;28;20077;-80
2022/03/03 02:57:54;;;;;;;49.78;22.02;;;;;;;-2.24;100.00;98113.91;5035183;28;20053;-79
2022/03/03 03:00:53;;;;;;;52.58;22.27;;;;;;;-2.35;100.00;98115.47;5035422;28;20049;-80
2022/03/03 03:03:21;;;;;;;48.83;21.95;;;;;;;-2.40;100.00;98114.50;5038255;28;20107;-77
2022/03/03 03:05:48;;;;;;;54.55;22.73;;;;;;;-2.43;100.00;98112.28;5028552;28;20145;-78
2022/03/03 03:08:15;;;;;;;46.90;21.80;;;;;;;-2.33;100.00;98113.41;5029818;28;20049;-77
2022/03/03 03:10:42;;;;;;;54.83;21.38;;;;;;;-2.32;100.00;98104.41;5029346;28;20050;-76
2022/03/03 03:13:14;;;;;;;49.28;22.13;;;;;;;-2.34;100.00;98110.97;5028035;28;20453;-77
2022/03/03 03:15:45;;;;;;;52.58;21.58;;;;;;;-2.28;100.00;98104.78;5029140;28;20081;-76
2022/03/03 03:18:19;;;;;;;46.75;21.67;;;;;;;-2.37;100.00;98122.81;5029766;28;20084;-77
2022/03/03 03:20:49;;;;;;;50.40;21.77;;;;;;;-2.34;100.00;98111.78;5028737;28;20156;-77
2022/03/03 03:23:18;;;;;;;52.70;22.27;;;;;;;-2.37;100.00;98114.88;5028991;28;20054;-77
2022/03/03 03:25:46;;;;;;;50.13;21.08;;;;;;;-2.62;100.00;98108.81;5029665;28;20494;-77
2022/03/03 03:28:15;;;;;;;46.58;21.25;;;;;;;-2.61;100.00;98113.88;5030025;28;20104;-77
2022/03/03 03:30:42;;;;;;;51.40;21.63;;;;;;;-2.70;100.00;98104.63;5035671;28;20099;-77
2022/03/03 03:33:08;;;;;;;49.08;20.70;;;;;;;-2.75;100.00;98096.50;5049433;28;20053;-77
2022/03/03 03:35:35;;;;;;;51.20;21.38;;;;;;;-2.70;100.00;98106.44;5036689;28;20102;-76
2022/03/03 03:38:02;;;;;;;49.42;21.17;;;;;;;-2.69;100.00;98106.25;5043126;28;20103;-77
2022/03/03 03:40:29;;;;;;;51.15;22.05;;;;;;;-2.78;100.00;98112.84;5048804;28;20045;-76
2022/03/03 03:42:56;;;;;;;48.92;21.75;;;;;;;-3.13;100.00;98124.97;5048779;28;20049;-77
2022/03/03 03:45:22;;;;;;;54.13;22.70;;;;;;;-3.26;100.00;98119.78;5048376;28;20101;-76
2022/03/03 03:47:49;;;;;;;50.00;22.17;;;;;;;-3.05;100.00;98116.75;5049441;28;20049;-77
2022/03/03 03:50:16;;;;;;;53.75;23.02;;;;;;;-2.90;100.00;98119.06;5048336;28;20780;-77
2022/03/03 03:52:43;;;;;;;47.60;21.85;;;;;;;-2.87;100.00;98103.56;5048946;28;20506;-78
2022/03/03 03:55:11;;;;;;;55.30;22.95;;;;;;;-2.81;100.00;98107.16;5050396;28;20049;-77
2022/03/03 03:57:38;;;;;;;49.47;22.02;;;;;;;-2.80;100.00;98096.34;5050067;28;20053;-77
2022/03/03 04:00:08;;;;;;;52.58;21.52;;;;;;;-2.81;100.00;98092.06;5049171;28;20052;-75
2022/03/03 04:02:35;;;;;;;52.88;22.77;;;;;;;-2.80;100.00;98106.97;5048598;28;20049;-77
2022/03/03 04:05:02;;;;;;;52.45;21.27;;;;;;;-2.99;100.00;98104.50;5048394;28;20052;-77
2022/03/03 04:07:29;;;;;;;56.33;21.85;;;;;;;-3.00;100.00;98087.78;5047358;28;20074;-77
2022/03/03 04:09:56;;;;;;;55.00;24.02;;;;;;;-2.97;100.00;98089.19;5049858;28;20061;-78
2022/03/03 04:12:22;;;;;;;56.35;23.23;;;;;;;-2.91;100.00;98097.06;5048053;28;20045;-78
2022/03/03 04:14:49;;;;;;;51.35;22.08;;;;;;;-3.42;100.00;98092.00;5048973;28;20083;-77
2022/03/03 04:17:16;;;;;;;52.75;22.38;;;;;;;-3.23;100.00;98071.69;5049914;28;20049;-77
2022/03/03 04:19:42;;;;;;;54.92;22.98;;;;;;;-3.09;100.00;98077.66;5051953;28;20116;-78
2022/03/03 04:22:09;;;;;;;52.03;22.83;;;;;;;-2.99;100.00;98070.84;5049856;28;20045;-79
2022/03/03 04:24:35;;;;;;;55.55;24.05;;;;;;;-3.04;100.00;98062.75;5049953;28;20041;-77
2022/03/03 04:27:04;;;;;;;52.03;22.65;;;;;;;-3.16;100.00;98072.44;5049822;28;20448;-77
2022/03/03 04:29:31;;;;;;;56.05;23.20;;;;;;;-3.46;100.00;98079.41;5050242;28;20076;-79
2022/03/03 04:31:58;;;;;;;56.40;21.88;;;;;;;-3.47;100.00;98080.44;5056019;28;20041;-79
2022/03/03 04:34:25;;;;;;;55.13;21.60;;;;;;;-3.37;100.00;98072.81;5057702;28;20060;-78
2022/03/03 04:36:52;;;;;;;49.75;22.48;;;;;;;-3.33;100.00;98072.16;5055114;28;20114;-78
2022/03/03 04:39:19;;;;;;;55.03;23.13;;;;;;;-3.26;100.00;98074.78;5057816;28;20049;-78
2022/03/03 04:41:46;;;;;;;56.83;23.88;;;;;;;-3.46;100.00;98085.50;5052879;28;20110;-76
2022/03/03 04:44:12;;;;;;;57.70;23.38;;;;;;;-3.52;100.00;98056.44;5054663;28;20045;-77
2022/03/03 04:46:39;;;;;;;52.90;24.13;;;;;;;-3.29;100.00;98067.25;5047169;28;20708;-79
2022/03/03 04:49:05;;;;;;;54.92;23.08;;;;;;;-3.33;100.00;98060.78;5044106;28;20045;-78
2022/03/03 04:51:36;;;;;;;57.88;24.48;;;;;;;-3.21;100.00;98064.34;5041511;28;20091;-77
2022/03/03 04:54:07;;;;;;;57.20;24.13;;;;;;;-3.17;100.00;98061.03;5055458;28;20049;-79
2022/03/03 04:56:35;;;;;;;54.13;22.98;;;;;;;-3.18;100.00;98069.22;5055991;28;20091;-77
2022/03/03 04:59:03;;;;;;;58.63;24.17;;;;;;;-3.20;100.00;98063.34;5054868;28;20045;-78
2022/03/03 05:01:29;;;;;;;69.72;26.00;;;;;;;-3.11;100.00;98063.84;5057883;28;20056;-77
2022/03/03 05:03:56;;;;;;;59.78;24.50;;;;;;;-3.21;100.00;98064.34;5067992;28;20049;-77
2022/03/03 05:06:23;;;;;;;57.17;23.75;;;;;;;-3.26;100.00;98070.28;5052960;28;20067;-77
2022/03/03 05:08:50;;;;;;;53.17;22.88;;;;;;;-3.34;100.00;98064.44;5052611;28;20052;-78
2022/03/03 05:11:16;;;;;;;56.83;22.88;;;;;;;-3.33;100.00;98069.50;5017109;28;20056;-77
2022/03/03 05:13:43;;;;;;;60.50;24.02;;;;;;;-3.35;100.00;98076.88;5033618;28;20498;-77
2022/03/03 05:16:09;;;;;;;55.17;23.95;;;;;;;-3.31;100.00;98075.44;5032075;28;20705;-77
2022/03/03 05:18:36;;;;;;;52.85;23.15;;;;;;;-3.20;100.00;98073.91;5031540;28;20080;-77
2022/03/03 05:21:03;;;;;;;55.45;23.63;;;;;;;-3.37;100.00;98064.88;5029080;28;20069;-78
2022/03/03 05:23:29;;;;;;;53.80;23.20;;;;;;;-3.31;100.00;98061.38;5031207;28;20549;-79
2022/03/03 05:25:56;;;;;;;57.70;23.90;;;;;;;-3.55;100.00;98056.88;5038088;28;20057;-77
2022/03/03 05:28:23;;;;;;;58.92;25.48;;;;;;;-3.57;100.00;98054.44;5053053;28;20179;-76
2022/03/03 05:30:49;;;;;;;60.78;24.02;;;;;;;-3.29;100.00;98070.72;5051678;28;20041;-77
2022/03/03 05:33:16;;;;;;;56.88;23.60;;;;;;;-3.35;100.00;98049.59;5053579;28;20440;-78
2022/03/03 05:35:47;;;;;;;57.22;23.92;;;;;;;-3.28;100.00;98048.50;5053744;28;20049;-78
2022/03/03 05:38:13;;;;;;;58.97;24.10;;;;;;;-3.40;100.00;98044.94;5055932;28;20049;-78
2022/03/03 05:40:40;;;;;;;48.03;22.08;;;;;;;-3.36;100.00;98051.44;5053691;28;20077;-78
2022/03/03 05:43:09;;;;;;;58.83;24.35;;;;;;;-3.29;100.00;98060.13;5053522;28;20060;-77
2022/03/03 05:45:38;;;;;;;55.78;23.25;;;;;;;-3.43;100.00;98055.19;5055101;28;20055;-76
2022/03/03 05:48:05;;;;;;;55.13;22.88;;;;;;;-3.41;100.00;98074.28;5066162;28;20048;-78
2022/03/03 05:50:32;;;;;;;53.65;23.15;;;;;;;-3.57;100.00;98061.56;5062330;28;20072;-78
2022/03/03 05:53:04;;;;;;;56.75;23.88;;;;;;;-3.67;100.00;98069.19;5044588;28;20055;-78
2022/03/03 05:55:30;;;;;;;57.55;23.13;;;;;;;-3.51;100.00;98080.03;5045415;28;20045;-78
2022/03/03 05:57:59;;;;;;;66.18;25.33;;;;;;;-3.57;100.00;98067.69;5051130;28;20040;-78
2022/03/03 06:00:28;;;;;;;62.00;25.65;;;;;;;-3.39;100.00;98061.63;5042415;28;20053;-78
2022/03/03 06:02:55;;;;;;;61.22;23.88;;;;;;;-3.28;100.00;98051.16;5033811;28;20176;-78
2022/03/03 06:05:24;;;;;;;53.58;23.42;;;;;;;-3.25;100.00;98055.19;5034403;28;20049;-78
2022/03/03 06:08:01;;;;;;;55.42;24.58;;;;;;;-3.33;100.00;98045.69;5034450;28;20045;-77
2022/03/03 06:10:31;;;;;;;55.22;23.50;;;;;;;-3.25;100.00;98048.06;5037371;28;20079;-78
2022/03/03 06:13:12;;;;;;;55.67;23.60;;;;;;;-3.16;100.00;98053.91;5053744;28;20057;-78
2022/03/03 06:15:42;;;;;;;59.25;24.35;;;;;;;-3.34;100.00;98043.28;5036828;28;20049;-77
2022/03/03 06:18:09;;;;;;;85.47;31.45;;;;;;;-3.15;100.00;98055.53;5043570;28;20048;-77
2022/03/03 06:20:37;;;;;;;67.93;25.27;;;;;;;-3.10;100.00;98060.19;5036403;28;20064;-77
2022/03/03 06:23:04;;;;;;;82.85;26.88;;;;;;;-3.13;100.00;98047.38;5049445;28;20678;-76
2022/03/03 06:25:31;;;;;;;66.82;25.23;;;;;;;-3.20;100.00;98063.34;5042677;28;20060;-75
2022/03/03 06:27:58;;;;;;;82.80;27.98;;;;;;;-3.14;100.00;98059.78;5044192;28;20145;-79
2022/03/03 06:30:26;;;;;;;92.03;30.08;;;;;;;-3.13;100.00;98052.66;5041898;28;20095;-79
2022/03/03 06:32:52;;;;;;;101.43;30.90;;;;;;;-2.85;100.00;98060.97;5041937;28;20076;-78
2022/03/03 06:35:19;;;;;;;72.68;27.30;;;;;;;-2.79;100.00;98046.84;5047944;28;20107;-77
2022/03/03 06:37:45;;;;;;;65.28;25.27;;;;;;;-2.71;100.00;98062.47;5049467;28;20052;-77
2022/03/03 06:40:12;;;;;;;67.38;25.70;;;;;;;-2.61;100.00;98060.88;5051274;28;20048;-77
2022/03/03 06:42:39;;;;;;;66.20;25.58;;;;;;;-2.57;100.00;98054.13;5049453;28;20072;-77
2022/03/03 06:45:05;;;;;;;59.92;25.50;;;;;;;-2.45;100.00;98045.44;5049044;28;20071;-76
2022/03/03 06:47:34;;;;;;;63.30;25.40;;;;;;;-2.35;100.00;98057.16;5050925;28;20571;-77
2022/03/03 06:50:00;;;;;;;67.20;25.45;;;;;;;-2.31;100.00;98053.00;5039891;28;20060;-77
2022/03/03 06:52:31;;;;;;;58.95;25.23;;;;;;;-2.24;100.00;98059.03;5045325;28;20049;-79
2022/03/03 06:54:59;;;;;;;60.92;26.00;;;;;;;-2.14;100.00;98055.88;5045486;28;20049;-78
2022/03/03 06:57:26;;;;;;;66.55;25.73;;;;;;;-2.10;100.00;98062.34;5046307;28;20811;-78
2022/03/03 06:59:58;;;;;;;65.15;26.10;;;;;;;-1.93;100.00;98058.03;5036921;28;20111;-77
2022/03/03 07:02:26;;;;;;;66.68;28.38;;;;;;;-1.80;100.00;98063.16;5043791;28;20103;-75
2022/03/03 07:04:54;;;;;;;63.78;25.38;;;;;;;-1.54;100.00;98064.63;5044877;28;20160;-77
2022/03/03 07:07:21;;;;;;;55.03;24.67;;;;;;;-1.46;100.00;98051.84;5037823;28;20049;-78
2022/03/03 07:09:49;;;;;;;69.32;28.25;;;;;;;-1.40;100.00;98066.03;5041744;28;20052;-77
2022/03/03 07:12:17;;;;;;;67.40;28.02;;;;;;;-1.50;100.00;98060.47;5030346;28;20040;-78
2022/03/03 07:14:44;;;;;;;64.07;27.67;;;;;;;-1.41;100.00;98056.44;5032564;28;20551;-76
2022/03/03 07:17:31;;;;;;;68.88;28.23;;;;;;;-1.27;100.00;98058.69;5024977;28;20116;-76
2022/03/03 07:20:03;;;;;;;63.08;27.98;;;;;;;-1.17;100.00;98050.16;5027496;28;20057;-78
2022/03/03 07:22:56;;;;;;;65.78;27.83;;;;;;;-0.98;100.00;98050.84;5024678;28;20660;-78
2022/03/03 07:25:49;;;;;;;72.18;28.05;;;;;;;-0.70;100.00;98051.75;5023202;28;20125;-78
2022/03/03 07:28:18;;;;;;;73.15;30.25;;;;;;;-0.65;100.00;98041.25;5035518;28;20057;-79
2022/03/03 07:30:49;;;;;;;69.38;28.88;;;;;;;-0.31;100.00;98066.13;5034681;28;20053;-79
2022/03/03 07:33:18;;;;;;;65.05;28.88;;;;;;;-0.25;100.00;98067.06;5026636;28;20096;-79
2022/03/03 07:35:49;;;;;;;64.32;28.55;;;;;;;0.12;100.00;98059.53;5031496;28;20437;-76
2022/03/03 07:38:19;;;;;;;64.90;29.40;;;;;;;0.56;100.00;98061.41;5028286;28;20451;-77
2022/03/03 07:40:48;;;;;;;63.50;27.92;;;;;;;0.65;100.00;98051.97;5029105;28;20060;-78
2022/03/03 07:43:16;;;;;;;58.85;27.88;;;;;;;0.94;100.00;98058.84;5035638;28;20243;-77
2022/03/03 07:45:46;;;;;;;58.08;26.95;;;;;;;1.14;100.00;98058.34;5036168;28;20049;-77
2022/03/03 07:48:13;;;;;;;58.00;25.35;;;;;;;1.17;100.00;98055.19;5030027;28;20098;-76
2022/03/03 07:50:41;;;;;;;52.97;25.13;;;;;;;1.31;100.00;98047.66;5029048;28;20049;-78
2022/03/03 07:53:12;;;;;;;54.15;25.52;;;;;;;1.25;100.00;98058.25;5030638;28;20049;-77
2022/03/03 07:55:48;;;;;;;50.58;25.48;;;;;;;1.26;100.00;98045.75;5030366;28;20057;-78
2022/03/03 07:58:17;;;;;;;54.13;25.02;;;;;;;1.34;100.00;98052.50;5032124;28;20068;-78
2022/03/03 08:00:48;;;;;;;54.78;25.58;;;;;;;1.36;100.00;98055.75;5023952;28;20053;-78
2022/03/03 08:03:19;;;;;;;58.42;27.05;;;;;;;1.59;100.00;98056.34;5017013;28;20101;-78
2022/03/03 08:05:50;;;;;;;67.07;29.60;;;;;;;1.60;100.00;98054.47;5033588;28;20142;-77
2022/03/03 08:08:22;;;;;;;59.95;28.60;;;;;;;1.66;100.00;98050.81;5041931;28;20143;-79
2022/03/03 08:10:49;;;;;;;70.85;30.77;;;;;;;1.90;100.00;98041.50;5041427;28;20068;-77
2022/03/03 08:13:17;;;;;;;75.90;33.47;;;;;;;2.22;100.00;98052.28;5027894;28;20080;-76
2022/03/03 08:15:45;;;;;;;76.03;32.53;;;;;;;2.32;100.00;98066.53;5061188;28;20107;-77
2022/03/03 08:18:14;;;;;;;64.15;27.30;;;;;;;2.28;100.00;98073.44;5067673;28;20053;-77
2022/03/03 08:20:41;;;;;;;53.83;26.33;;;;;;;2.34;100.00;98068.97;5056371;28;20111;-79
2022/03/03 08:23:08;;;;;;;54.90;26.08;;;;;;;2.61;100.00;98067.09;5039108;28;20481;-77
2022/03/03 08:25:35;;;;;;;56.85;26.08;;;;;;;2.23;100.00;98062.72;5050673;28;20057;-76
2022/03/03 08:28:03;;;;;;;56.53;26.83;;;;;;;2.73;100.00;98059.75;5053801;28;20126;-77
2022/03/03 08:30:30;;;;;;;52.90;24.95;;;;;;;2.67;100.00;98050.06;5039149;28;20625;-79
2022/03/03 08:33:08;;;;;;;51.33;24.42;;;;;;;3.17;100.00;98054.19;5034307;28;20046;-78
2022/03/03 08:35:39;;;;;;;62.22;26.10;;;;;;;3.30;100.00;98045.72;5033840;28;20493;-80
2022/03/03 08:38:10;;;;;;;52.40;25.08;;;;;;;3.44;100.00;98033.50;5034403;28;20095;-77
2022/03/03 08:40:37;;;;;;;54.38;25.05;;;;;;;3.24;100.00;98028.84;5033859;28;20104;-77
2022/03/03 08:43:05;;;;;;;55.88;27.05;;;;;;;3.74;100.00;98055.09;5034555;28;20164;-79
2022/03/03 08:45:34;;;;;;;61.05;24.98;;;;;;;3.68;100.00;98051.56;5040864;28;20045;-79
2022/03/03 08:48:06;;;;;;;53.70;26.17;;;;;;;3.74;100.00;98049.72;5056474;28;20053;-79
2022/03/03 08:50:36;;;;;;;52.08;25.27;;;;;;;3.83;100.00;98042.78;5054667;28;20048;-78
2022/03/03 08:53:06;;;;;;;53.00;24.13;;;;;;;4.00;100.00;98047.97;5055341;28;20045;-78
2022/03/03 08:55:34;;;;;;;49.88;23.38;;;;;;;4.14;100.00;98033.00;5055312;28;20055;-78
2022/03/03 08:58:00;;;;;;;44.55;23.30;;;;;;;4.31;100.00;98047.00;5054765;28;20052;-78
2022/03/03 09:00:28;;;;;;;49.72;23.00;;;;;;;4.59;100.00;98040.34;5053662;28;20076;-78
2022/03/03 09:02:55;;;;;;;52.15;23.15;;;;;;;5.00;100.00;98039.28;5036188;28;20528;-78
2022/03/03 09:05:22;;;;;;;50.20;23.80;;;;;;;5.10;100.00;98041.16;5034027;28;20449;-80
2022/03/03 09:07:52;;;;;;;49.78;24.33;;;;;;;4.99;100.00;98038.47;5034474;28;20141;-78
2022/03/03 09:10:19;;;;;;;47.10;22.58;;;;;;;5.12;97.83;98044.38;5035727;28;20050;-77
2022/03/03 09:12:45;;;;;;;56.03;22.88;;;;;;;5.20;87.16;98035.78;5032823;28;20048;-78
2022/03/03 09:15:15;;;;;;;46.03;20.83;;;;;;;5.36;80.97;98040.88;5035832;28;20049;-77
2022/03/03 09:17:46;;;;;;;48.22;19.75;;;;;;;5.37;75.81;98031.72;5030517;28;20117;-79
2022/03/03 09:20:15;;;;;;;39.33;19.25;;;;;;;5.27;71.21;98047.03;5033188;28;20084;-79
2022/03/03 09:22:43;;;;;;;43.65;19.25;;;;;;;5.35;70.30;98001.66;5030959;23;20049;-78
2022/03/03 09:25:10;;;;;;;45.00;19.75;;;;;;;5.64;69.38;98004.53;4992432;28;20054;-79
2022/03/03 09:27:38;;;;;;;39.08;18.10;;;;;;;5.35;66.90;97992.81;4994337;28;20105;-79
2022/03/03 09:30:09;;;;;;;49.58;19.80;;;;;;;5.82;64.36;98022.75;4996129;28;20104;-78
2022/03/03 09:32:40;;;;;;;49.58;18.83;;;;;;;6.25;65.15;98000.53;4996132;28;20403;-77
2022/03/03 09:35:07;;;;;;;39.63;17.98;;;;;;;6.67;62.94;98023.38;4993393;28;20050;-79
2022/03/03 09:37:34;;;;;;;36.40;18.02;;;;;;;6.92;62.01;98033.94;4995510;28;20465;-79
2022/03/03 09:40:02;;;;;;;45.72;19.25;;;;;;;7.22;62.11;98057.94;4996448;28;20082;-78
2022/03/03 09:42:31;;;;;;;36.60;17.83;;;;;;;7.56;57.71;98038.22;4995097;28;20070;-79
2022/03/03 09:44:59;;;;;;;39.40;17.80;;;;;;;7.81;56.09;98054.13;4995729;28;20169;-77
2022/03/03 09:47:26;;;;;;;42.35;18.25;;;;;;;8.30;54.00;98053.84;4994592;28;20050;-77
2022/03/03 09:49:53;;;;;;;45.63;18.88;;;;;;;8.59;53.09;98057.22;4992420;28;20042;-77
2022/03/03 09:52:20;;;;;;;41.70;19.60;;;;;;;9.15;52.16;98039.06;4993820;28;20085;-77
2022/03/03 09:54:51;;;;;;;52.72;20.67;;;;;;;10.29;50.62;98030.19;4996898;28;20042;-79
2022/03/03 09:57:17;;;;;;;33.42;16.80;;;;;;;10.42;47.08;98034.78;5018190;28;20065;-79
2022/03/03 09:59:44;;;;;;;63.92;22.17;;;;;;;10.58;45.65;98041.47;5004054;28;20077;-78
2022/03/03 10:02:11;;;;;;;47.42;19.70;;;;;;;11.51;44.48;98037.81;5000807;28;20050;-78
2022/03/03 10:04:38;;;;;;;56.45;21.58;;;;;;;12.78;41.96;98044.00;5001182;28;20054;-79
2022/03/03 10:07:07;;;;;;;48.17;20.67;;;;;;;12.59;42.70;98034.56;4997427;28;20046;-79
2022/03/03 10:09:59;;;;;;;33.42;17.40;;;;;;;13.62;40.25;98027.97;4997881;28;20140;-81
2022/03/03 10:12:40;;;;;;;38.53;18.48;;;;;;;13.58;39.41;98027.00;4995768;28;20058;-79
2022/03/03 10:15:12;;;;;;;40.03;18.20;;;;;;;14.13;38.58;98039.75;4997370;28;20078;-78
2022/03/03 10:17:38;;;;;;;43.63;19.98;;;;;;;14.22;38.63;98030.41;4997446;28;20124;-77
2022/03/03 10:20:07;;;;;;;30.45;16.80;;;;;;;15.63;36.23;98018.59;4998216;28;20105;-81
2022/03/03 10:22:41;;;;;;;34.30;17.20;;;;;;;15.17;36.19;98013.41;4997202;28;20043;-79
2022/03/03 10:25:10;;;;;;;31.63;16.33;;;;;;;14.98;36.62;98000.25;4992558;28;20066;-77
2022/03/03 10:27:36;;;;;;;28.90;15.52;;;;;;;16.10;34.93;98013.53;4990826;28;20061;-77
2022/03/03 10:30:06;;;;;;;28.17;15.93;;;;;;;15.72;34.77;98008.34;4990022;28;20412;-77
2022/03/03 10:32:35;;;;;;;33.90;17.13;;;;;;;15.15;34.87;98013.72;4989188;28;20526;-77
2022/03/03 10:35:16;;;;;;;30.98;16.35;;;;;;;16.69;32.17;98014.63;4989638;28;20464;-76
2022/03/03 10:37:44;;;;;;;34.42;15.90;;;;;;;17.57;31.19;98012.84;4994166;28;20105;-76
2022/03/03 10:40:14;;;;;;;26.25;15.70;;;;;;;17.22;31.60;98009.88;4990074;28;20061;-77
2022/03/03 10:42:50;;;;;;;29.50;16.10;;;;;;;17.50;31.83;98009.88;4998741;28;20050;-76
2022/03/03 10:45:19;;;;;;;32.03;16.65;;;;;;;17.13;30.98;98004.59;4990607;28;20108;-77
2022/03/03 10:48:03;;;;;;;26.77;16.15;;;;;;;16.40;33.47;98001.22;4989081;28;20053;-78
2022/03/03 10:50:50;;;;;;;25.40;14.77;;;;;;;17.67;31.19;98001.38;4988260;28;20054;-77
2022/03/03 10:53:18;;;;;;;24.73;14.38;;;;;;;17.77;31.50;97992.63;4988518;28;20148;-76
2022/03/03 10:56:04;;;;;;;27.25;15.00;;;;;;;17.56;30.56;98000.28;4989649;28;20070;-77
2022/03/03 10:58:54;;;;;;;26.90;14.70;;;;;;;17.91;30.72;97995.72;5000109;28;20527;-77
2022/03/03 11:01:22;;;;;;;26.33;14.57;;;;;;;18.25;30.08;97983.22;4970040;28;20137;-78
2022/03/03 11:03:50;;;;;;;24.77;14.80;;;;;;;18.34;30.25;97979.16;4970402;28;20134;-77
2022/03/03 11:06:24;;;;;;;25.08;14.18;;;;;;;18.34;30.25;97979.16;4973863;28;20506;-76
2022/03/03 11:08:55;;;;;;;24.92;14.10;;;;;;;18.31;29.31;97968.09;4988310;28;20057;-77
2022/03/03 11:11:24;;;;;;;25.35;14.50;;;;;;;18.38;29.04;97974.53;4988679;28;20123;-77
2022/03/03 11:13:52;;;;;;;26.67;14.88;;;;;;;17.53;29.82;97985.34;4985706;28;20101;-77
2022/03/03 11:16:21;;;;;;;22.92;14.10;;;;;;;19.46;27.88;97968.19;4987934;28;20112;-78
2022/03/03 11:18:49;;;;;;;24.15;14.10;;;;;;;18.91;28.17;97980.41;4989346;28;20136;-76